createdAt,value
2022-12-03T00:00:15.514Z,22.98
2022-12-03T00:03:02.835Z,27.73
2022-12-03T00:05:30.291Z,29.40
2022-12-03T00:07:57.404Z,25.35
2022-12-03T00:10:24.911Z,26.70
2022-12-03T00:12:52.474Z,30.88
2022-12-03T00:15:23.449Z,27.23
2022-12-03T00:17:50.828Z,32.40
2022-12-03T00:20:21.513Z,31.63
2022-12-03T00:22:48.705Z,29.73
2022-12-03T00:25:16.580Z,29.23
2022-12-03T00:27:43.825Z,27.23
2022-12-03T00:30:14.858Z,29.13
2022-12-03T00:32:42.227Z,28.50
2022-12-03T00:35:09.981Z,28.50
2022-12-03T00:37:37.040Z,33.47
2022-12-03T00:40:06.237Z,32.67
2022-12-03T00:42:33.500Z,32.10
2022-12-03T00:45:00.963Z,28.25
2022-12-03T00:47:28.261Z,31.02
2022-12-03T00:49:55.520Z,29.20
2022-12-03T00:52:24.716Z,26.65
2022-12-03T00:54:52.316Z,33.22
2022-12-03T00:57:19.546Z,30.75
2022-12-03T00:59:47.079Z,31.45
2022-12-03T01:02:14.204Z,27.20
2022-12-03T01:04:42.182Z,32.55
2022-12-03T01:07:09.258Z,29.58
2022-12-03T01:09:36.558Z,28.20
2022-12-03T01:12:03.617Z,36.53
2022-12-03T01:14:31.331Z,30.92
2022-12-03T01:16:58.392Z,30.98
2022-12-03T01:19:25.951Z,29.73
2022-12-03T01:21:52.942Z,44.75
2022-12-03T01:24:20.594Z,30.88
2022-12-03T01:26:47.620Z,30.40
2022-12-03T01:29:15.013Z,28.42
2022-12-03T01:32:04.041Z,35.00
2022-12-03T01:34:31.599Z,31.10
2022-12-03T01:36:59.001Z,34.40
2022-12-03T01:39:26.321Z,29.58
2022-12-03T01:41:54.703Z,28.13
2022-12-03T01:44:28.514Z,32.63
2022-12-03T01:46:58.416Z,31.73
2022-12-03T01:49:31.531Z,28.98
2022-12-03T01:51:59.537Z,29.63
2022-12-03T01:54:35.970Z,28.45
2022-12-03T01:57:03.549Z,31.45
2022-12-03T01:59:38.710Z,31.75
2022-12-03T02:02:13.570Z,26.85
2022-12-03T02:04:41.385Z,32.42
2022-12-03T02:07:22.566Z,31.15
2022-12-03T02:09:52.299Z,30.08
2022-12-03T02:12:24.947Z,29.05
2022-12-03T02:14:53.825Z,31.58
2022-12-03T02:17:21.216Z,30.25
2022-12-03T02:19:49.076Z,29.35
2022-12-03T02:22:31.205Z,28.95
2022-12-03T02:25:07.527Z,30.55
2022-12-03T02:27:34.518Z,30.88
2022-12-03T02:30:01.986Z,29.40
2022-12-03T02:32:28.936Z,33.22
2022-12-03T02:34:56.717Z,33.17
2022-12-03T02:37:29.666Z,30.33
2022-12-03T02:40:03.156Z,31.48
2022-12-03T02:42:36.585Z,27.63
2022-12-03T02:45:12.962Z,27.73
2022-12-03T02:47:46.933Z,29.52
2022-12-03T02:50:20.368Z,30.75
2022-12-03T02:52:48.616Z,29.10
2022-12-03T02:55:17.924Z,27.98
2022-12-03T02:57:48.303Z,25.85
2022-12-03T03:00:17.141Z,27.05
2022-12-03T03:02:46.477Z,31.85
2022-12-03T03:05:17.601Z,30.38
2022-12-03T03:07:45.114Z,27.05
2022-12-03T03:10:15.539Z,27.95
2022-12-03T03:12:42.795Z,26.25
2022-12-03T03:15:11.693Z,27.38
2022-12-03T03:17:39.517Z,27.00
2022-12-03T03:20:08.242Z,32.80
2022-12-03T03:22:41.741Z,26.55
2022-12-03T03:25:12.699Z,30.90
2022-12-03T03:27:43.390Z,30.77
2022-12-03T03:30:14.261Z,29.30
2022-12-03T03:32:42.715Z,29.17
2022-12-03T03:35:11.038Z,30.45
2022-12-03T03:37:39.010Z,30.35
2022-12-03T03:40:09.498Z,28.63
2022-12-03T03:42:37.985Z,27.20
2022-12-03T03:45:07.291Z,30.50
2022-12-03T03:47:34.479Z,30.92
2022-12-03T03:50:02.439Z,27.40
2022-12-03T03:52:30.408Z,32.08
2022-12-03T03:55:00.357Z,29.08
2022-12-03T03:57:29.520Z,32.80
2022-12-03T03:59:59.263Z,27.50
2022-12-03T04:02:27.516Z,29.17
2022-12-03T04:04:55.304Z,27.02
2022-12-03T04:07:22.476Z,27.05
2022-12-03T04:09:49.702Z,31.33
2022-12-03T04:12:35.683Z,25.13
2022-12-03T04:17:29.901Z,27.73
2022-12-03T04:19:57.187Z,25.60
2022-12-03T04:22:42.520Z,27.92
2022-12-03T04:25:28.829Z,21.60
2022-12-03T04:28:14.830Z,25.90
2022-12-03T04:30:42.209Z,28.48
2022-12-03T04:33:30.292Z,24.58
2022-12-03T04:36:00.753Z,23.33
2022-12-03T04:38:27.880Z,27.27
2022-12-03T04:41:04.217Z,29.00
2022-12-03T04:43:34.915Z,26.73
2022-12-03T04:46:05.926Z,25.52
2022-12-03T04:48:32.915Z,28.33
2022-12-03T04:51:00.184Z,26.20
2022-12-03T04:53:29.338Z,33.58
2022-12-03T04:55:56.635Z,30.45
2022-12-03T04:58:23.651Z,32.00
2022-12-03T05:00:54.183Z,29.50
2022-12-03T05:03:21.260Z,34.60
2022-12-03T05:05:48.911Z,31.00
2022-12-03T05:08:15.896Z,32.42
2022-12-03T05:10:43.326Z,36.03
2022-12-03T05:13:10.304Z,34.60
2022-12-03T05:15:39.925Z,31.75
2022-12-03T05:18:06.836Z,29.92
2022-12-03T05:20:51.470Z,30.48
2022-12-03T05:25:48.250Z,33.55
2022-12-03T05:28:15.306Z,32.75
2022-12-03T05:30:43.247Z,32.80
2022-12-03T05:33:10.231Z,35.63
2022-12-03T05:35:37.499Z,36.63
2022-12-03T05:38:04.557Z,39.53
2022-12-03T05:40:31.848Z,40.00
2022-12-03T05:43:01.273Z,40.20
2022-12-03T05:45:29.634Z,44.30
2022-12-03T05:47:57.917Z,40.60
2022-12-03T05:50:28.007Z,41.10
2022-12-03T05:52:55.977Z,45.13
2022-12-03T05:55:23.694Z,49.58
2022-12-03T05:57:50.941Z,45.63
2022-12-03T06:00:24.408Z,46.97
2022-12-03T06:02:52.034Z,49.60
2022-12-03T06:05:20.382Z,47.97
2022-12-03T06:07:48.801Z,48.00
2022-12-03T06:10:18.800Z,45.05
2022-12-03T06:12:48.366Z,44.20
2022-12-03T06:15:19.108Z,49.65
2022-12-03T06:17:46.575Z,46.47
2022-12-03T06:20:17.408Z,50.17
2022-12-03T06:22:44.718Z,49.78
2022-12-03T06:25:12.640Z,48.97
2022-12-03T06:27:39.635Z,43.65
2022-12-03T06:30:08.925Z,40.22
2022-12-03T06:32:36.061Z,43.22
2022-12-03T06:35:03.520Z,39.50
2022-12-03T06:37:30.577Z,39.80
2022-12-03T06:39:58.577Z,44.55
2022-12-03T06:42:25.698Z,39.15
2022-12-03T06:44:57.661Z,41.22
2022-12-03T06:47:24.762Z,43.28
2022-12-03T06:49:52.085Z,37.85
2022-12-03T06:52:22.571Z,44.88
2022-12-03T06:54:49.871Z,39.67
2022-12-03T06:57:16.833Z,40.65
2022-12-03T06:59:44.113Z,40.03
2022-12-03T07:02:12.648Z,39.75
2022-12-03T07:04:46.255Z,36.05
2022-12-03T07:07:14.045Z,36.05
2022-12-03T07:09:41.339Z,38.92
2022-12-03T07:12:08.297Z,39.90
2022-12-03T07:14:35.557Z,36.58
2022-12-03T07:17:02.575Z,33.67
2022-12-03T07:19:32.730Z,37.42
2022-12-03T07:22:00.797Z,37.05
2022-12-03T07:24:30.373Z,45.13
2022-12-03T07:26:57.430Z,40.10
2022-12-03T07:29:24.792Z,38.03
2022-12-03T07:31:51.898Z,37.28
2022-12-03T07:34:19.311Z,35.60
2022-12-03T07:36:46.373Z,36.75
2022-12-03T07:39:14.028Z,33.65
2022-12-03T07:41:41.090Z,39.75
2022-12-03T07:44:14.057Z,39.50
2022-12-03T07:46:44.446Z,40.03
2022-12-03T07:49:12.438Z,36.65
2022-12-03T07:51:42.961Z,40.05
2022-12-03T07:54:10.306Z,39.22
2022-12-03T07:56:37.454Z,38.72
2022-12-03T07:59:05.034Z,40.33
2022-12-03T08:01:34.835Z,42.60
2022-12-03T08:04:02.415Z,41.80
2022-12-03T08:06:29.472Z,37.72
2022-12-03T08:08:57.031Z,37.00
2022-12-03T08:11:24.078Z,40.03
2022-12-03T08:13:51.341Z,42.20
2022-12-03T08:16:20.491Z,38.08
2022-12-03T08:18:49.560Z,40.22
2022-12-03T08:21:19.367Z,38.15
2022-12-03T08:23:47.398Z,36.42
2022-12-03T08:26:20.894Z,41.85
2022-12-03T08:28:50.928Z,36.88
2022-12-03T08:31:26.838Z,42.10
2022-12-03T08:34:15.683Z,35.10
2022-12-03T08:36:47.034Z,40.55
2022-12-03T08:39:30.512Z,39.72
2022-12-03T08:42:27.782Z,37.42
2022-12-03T08:45:28.145Z,39.92
2022-12-03T08:47:59.888Z,36.35
2022-12-03T08:50:40.380Z,35.22
2022-12-03T08:53:29.375Z,38.88
2022-12-03T08:56:20.776Z,40.67
2022-12-03T08:58:52.513Z,36.55
2022-12-03T09:01:47.263Z,36.80
2022-12-03T09:04:36.189Z,41.88
2022-12-03T09:07:03.540Z,36.17
2022-12-03T09:09:30.554Z,36.15
2022-12-03T09:11:58.055Z,30.58
2022-12-03T09:14:25.107Z,38.03
2022-12-03T09:16:56.148Z,35.78
2022-12-03T09:19:25.340Z,36.72
2022-12-03T09:21:54.171Z,36.28
2022-12-03T09:24:21.407Z,42.90
2022-12-03T09:26:48.936Z,37.78
2022-12-03T09:29:16.203Z,42.15
2022-12-03T09:31:43.966Z,36.97
2022-12-03T09:34:11.458Z,40.83
2022-12-03T09:36:38.891Z,42.92
2022-12-03T09:39:05.941Z,42.00
2022-12-03T09:41:33.415Z,43.65
2022-12-03T09:44:04.463Z,44.47
2022-12-03T09:46:35.633Z,47.05
2022-12-03T09:49:04.087Z,45.33
2022-12-03T09:51:35.740Z,46.33
2022-12-03T09:54:05.566Z,49.13
2022-12-03T09:56:37.731Z,46.60
2022-12-03T09:59:15.424Z,49.90
2022-12-03T10:01:43.196Z,43.20
2022-12-03T10:04:10.715Z,45.17
2022-12-03T10:06:45.252Z,42.38
2022-12-03T10:09:24.653Z,50.17
2022-12-03T10:11:52.392Z,46.47
2022-12-03T10:14:20.229Z,55.75
2022-12-03T10:16:48.552Z,47.55
2022-12-03T10:19:27.567Z,63.88
2022-12-03T10:21:55.763Z,48.88
2022-12-03T10:24:31.751Z,47.15
2022-12-03T10:27:04.233Z,48.97
2022-12-03T10:29:34.810Z,46.85
2022-12-03T10:32:10.509Z,49.92
2022-12-03T10:34:45.443Z,46.47
2022-12-03T10:37:23.819Z,49.80
2022-12-03T10:40:01.614Z,50.50
2022-12-03T10:42:31.581Z,50.03
2022-12-03T10:45:23.350Z,52.05
2022-12-03T10:48:11.230Z,49.67
2022-12-03T10:50:47.339Z,52.08
2022-12-03T10:53:15.003Z,56.20
2022-12-03T10:55:44.320Z,51.40
2022-12-03T10:58:35.004Z,55.35
2022-12-03T11:01:13.393Z,56.25
2022-12-03T11:03:41.011Z,52.80
2022-12-03T11:06:15.456Z,50.75
2022-12-03T11:08:45.271Z,52.83
2022-12-03T11:11:20.146Z,53.00
2022-12-03T11:13:50.789Z,45.85
2022-12-03T11:16:39.875Z,53.08
2022-12-03T11:19:17.474Z,58.67
2022-12-03T11:22:06.508Z,51.78
2022-12-03T11:24:38.664Z,58.47
2022-12-03T11:27:12.981Z,55.67
2022-12-03T11:29:52.554Z,55.38
2022-12-03T11:32:38.064Z,54.33
2022-12-03T11:35:23.625Z,58.10
2022-12-03T11:37:51.173Z,56.92
2022-12-03T11:40:18.441Z,55.85
2022-12-03T11:42:49.793Z,56.83
2022-12-03T11:45:23.351Z,61.28
2022-12-03T11:47:59.440Z,59.95
2022-12-03T11:50:51.121Z,59.58
2022-12-03T11:53:24.928Z,57.70
2022-12-03T11:56:10.406Z,62.65
2022-12-03T11:58:43.224Z,60.22
2022-12-03T12:01:12.695Z,62.45
2022-12-03T12:03:49.226Z,63.22
2022-12-03T12:06:24.126Z,64.68
2022-12-03T12:08:51.377Z,57.22
2022-12-03T12:11:31.012Z,60.30
2022-12-03T12:14:02.183Z,59.25
2022-12-03T12:17:03.244Z,59.60
2022-12-03T12:19:42.611Z,61.35
2022-12-03T12:22:25.368Z,59.90
2022-12-03T12:24:56.267Z,60.20
2022-12-03T12:27:32.025Z,61.55
2022-12-03T12:30:02.580Z,58.67
2022-12-03T12:32:50.831Z,60.15
2022-12-03T12:35:25.420Z,62.92
2022-12-03T12:38:11.369Z,64.20
2022-12-03T12:40:40.600Z,56.55
2022-12-03T12:43:15.239Z,61.35
2022-12-03T12:45:45.486Z,62.13
2022-12-03T12:48:12.807Z,61.97
2022-12-03T12:50:44.411Z,62.22
2022-12-03T12:53:44.272Z,58.65
2022-12-03T12:56:28.253Z,55.25
2022-12-03T12:58:59.375Z,61.38
2022-12-03T13:01:31.763Z,63.20
2022-12-03T13:03:59.732Z,64.30
2022-12-03T13:06:31.102Z,66.18
2022-12-03T13:09:01.205Z,64.80
2022-12-03T13:11:42.317Z,60.55
2022-12-03T13:14:17.226Z,66.35
2022-12-03T13:16:44.823Z,68.80
2022-12-03T13:19:21.773Z,66.47
2022-12-03T13:21:50.359Z,65.07
2022-12-03T13:24:43.300Z,70.05
2022-12-03T13:27:19.771Z,71.10
2022-12-03T13:30:02.345Z,70.88
2022-12-03T13:32:33.622Z,82.25
2022-12-03T13:35:13.746Z,74.85
2022-12-03T13:37:40.842Z,80.70
2022-12-03T13:40:28.363Z,70.95
2022-12-03T13:42:59.526Z,72.60
2022-12-03T13:45:43.579Z,80.85
2022-12-03T13:48:31.804Z,78.80
2022-12-03T13:51:11.519Z,88.18
2022-12-03T13:53:40.479Z,79.82
2022-12-03T13:56:29.429Z,81.63
2022-12-03T13:59:00.179Z,84.20
2022-12-03T14:01:30.291Z,89.72
2022-12-03T14:03:57.449Z,80.22
2022-12-03T14:06:26.962Z,91.22
2022-12-03T14:08:53.960Z,98.22
2022-12-03T14:11:39.693Z,98.05
2022-12-03T14:14:09.248Z,108.43
2022-12-03T14:16:38.864Z,92.13
2022-12-03T14:19:06.419Z,102.03
2022-12-03T14:21:33.786Z,97.18
2022-12-03T14:24:01.096Z,88.45
2022-12-03T14:26:28.572Z,104.25
2022-12-03T14:28:55.554Z,105.88
2022-12-03T14:31:22.990Z,102.60
2022-12-03T14:33:50.280Z,104.20
2022-12-03T14:36:17.701Z,97.45
2022-12-03T14:38:44.696Z,104.13
2022-12-03T14:41:31.962Z,106.22
2022-12-03T14:43:59.166Z,88.97
2022-12-03T14:46:29.074Z,104.63
2022-12-03T14:48:56.199Z,97.32
2022-12-03T14:51:23.563Z,110.55
2022-12-03T14:53:50.734Z,94.00
2022-12-03T14:56:19.548Z,100.63
2022-12-03T14:58:46.567Z,95.50
2022-12-03T15:01:14.931Z,80.22
2022-12-03T15:03:44.152Z,79.30
2022-12-03T15:06:17.457Z,86.47
2022-12-03T15:08:44.911Z,83.60
2022-12-03T15:11:14.627Z,82.97
2022-12-03T15:13:41.616Z,75.57
2022-12-03T15:16:09.034Z,81.03
2022-12-03T15:18:36.215Z,74.82
2022-12-03T15:21:03.654Z,83.68
2022-12-03T15:23:30.813Z,78.03
2022-12-03T15:25:58.318Z,72.53
2022-12-03T15:28:25.628Z,73.55
2022-12-03T15:30:53.743Z,71.20
2022-12-03T15:33:20.870Z,73.22
2022-12-03T15:35:50.803Z,64.30
2022-12-03T15:38:19.077Z,69.57
2022-12-03T15:40:46.876Z,69.28
2022-12-03T15:43:14.572Z,62.75
2022-12-03T15:45:42.606Z,57.90
2022-12-03T15:48:10.045Z,65.00
2022-12-03T15:50:40.374Z,58.92
2022-12-03T15:53:08.112Z,61.20
2022-12-03T15:55:38.102Z,62.80
2022-12-03T15:58:05.391Z,61.83
2022-12-03T16:00:32.984Z,61.30
2022-12-03T16:03:01.359Z,64.57
2022-12-03T16:05:28.759Z,64.20
2022-12-03T16:07:56.183Z,61.78
2022-12-03T16:10:23.883Z,59.03
2022-12-03T16:12:50.968Z,61.83
2022-12-03T16:15:22.248Z,56.35
2022-12-03T16:17:54.496Z,62.88
2022-12-03T16:20:22.448Z,63.55
2022-12-03T16:22:52.172Z,63.20
2022-12-03T16:25:20.144Z,54.35
2022-12-03T16:27:47.728Z,57.25
2022-12-03T16:30:15.949Z,57.63
2022-12-03T16:32:43.611Z,59.03
2022-12-03T16:35:12.351Z,63.53
2022-12-03T16:37:39.566Z,63.42
2022-12-03T16:40:10.303Z,58.83
2022-12-03T16:46:15.889Z,62.42
2022-12-03T16:48:47.024Z,57.60
2022-12-03T16:51:14.470Z,54.28
2022-12-03T16:53:45.129Z,54.88
2022-12-03T16:56:14.280Z,55.97
2022-12-03T16:58:42.153Z,57.13
2022-12-03T17:01:12.817Z,57.65
2022-12-03T17:03:41.239Z,59.47
2022-12-03T17:06:08.522Z,59.38
2022-12-03T17:08:36.666Z,57.05
2022-12-03T17:11:04.231Z,60.90
2022-12-03T17:13:32.220Z,51.42
2022-12-03T17:16:00.929Z,59.47
2022-12-03T17:18:29.497Z,59.72
2022-12-03T17:20:56.700Z,51.00
2022-12-03T17:23:24.179Z,58.55
2022-12-03T17:25:51.683Z,59.03
2022-12-03T17:28:19.539Z,63.13
2022-12-03T17:30:46.978Z,65.85
2022-12-03T17:33:16.967Z,66.22
2022-12-03T17:35:45.859Z,63.40
2022-12-03T17:38:13.361Z,68.95
2022-12-03T17:40:41.638Z,62.95
2022-12-03T17:43:09.578Z,74.13
2022-12-03T17:45:37.562Z,73.93
2022-12-03T17:48:05.526Z,78.25
2022-12-03T17:50:35.490Z,74.40
2022-12-03T17:53:06.653Z,83.03
2022-12-03T17:55:41.282Z,76.22
2022-12-03T17:58:13.388Z,76.47
2022-12-03T18:00:42.796Z,83.38
2022-12-03T18:03:10.234Z,85.53
2022-12-03T18:05:37.268Z,78.88
2022-12-03T18:08:05.137Z,77.00
2022-12-03T18:10:32.494Z,75.00
2022-12-03T18:13:02.131Z,86.10
2022-12-03T18:15:30.406Z,76.40
2022-12-03T18:17:58.242Z,74.03
2022-12-03T18:20:25.789Z,76.20
2022-12-03T18:22:53.454Z,75.00
2022-12-03T18:25:23.265Z,85.05
2022-12-03T18:27:50.852Z,77.40
2022-12-03T18:30:18.876Z,71.40
2022-12-03T18:32:46.576Z,80.40
2022-12-03T18:35:14.099Z,77.40
2022-12-03T18:37:44.646Z,72.72
2022-12-03T18:40:19.164Z,75.90
2022-12-03T18:42:48.840Z,72.60
2022-12-03T18:45:18.054Z,82.60
2022-12-03T18:47:46.136Z,73.90
2022-12-03T18:50:17.569Z,79.15
2022-12-03T18:52:47.356Z,79.63
2022-12-03T18:55:19.248Z,74.88
2022-12-03T18:57:46.926Z,67.95
2022-12-03T19:00:18.074Z,75.22
2022-12-03T19:03:02.310Z,69.80
2022-12-03T19:05:33.605Z,56.10
2022-12-03T19:08:03.206Z,67.28
2022-12-03T19:10:34.163Z,71.00
2022-12-03T19:13:04.319Z,71.57
2022-12-03T19:15:32.480Z,74.93
2022-12-03T19:18:00.777Z,63.55
2022-12-03T19:20:28.678Z,77.13
2022-12-03T19:22:56.894Z,72.20
2022-12-03T19:25:26.704Z,70.72
2022-12-03T19:27:56.365Z,66.28
2022-12-03T19:30:27.981Z,71.22
2022-12-03T19:32:59.012Z,65.07
2022-12-03T19:35:28.460Z,69.47
2022-12-03T19:37:56.710Z,63.83
2022-12-03T19:40:26.946Z,69.28
2022-12-03T19:42:58.089Z,76.22
2022-12-03T19:45:28.134Z,69.97
2022-12-03T19:47:59.464Z,76.40
2022-12-03T19:50:27.584Z,74.40
2022-12-03T19:52:55.717Z,77.97
2022-12-03T19:55:23.957Z,73.85
2022-12-03T19:57:56.516Z,76.22
2022-12-03T20:00:24.034Z,79.53
2022-12-03T20:02:52.452Z,75.40
2022-12-03T20:05:20.389Z,87.22
2022-12-03T20:07:49.021Z,80.28
2022-12-03T20:10:17.033Z,76.80
2022-12-03T20:12:45.262Z,81.35
2022-12-03T20:15:17.109Z,73.03
2022-12-03T20:17:45.584Z,80.13
2022-12-03T20:20:15.988Z,80.30
2022-12-03T20:22:46.653Z,80.55
2022-12-03T20:25:14.847Z,82.10
2022-12-03T20:27:43.005Z,86.40
2022-12-03T20:30:11.916Z,83.15
2022-12-03T20:32:45.015Z,78.80
2022-12-03T20:35:14.049Z,80.13
2022-12-03T20:37:42.543Z,81.95
2022-12-03T20:40:11.789Z,78.65
2022-12-03T20:42:41.451Z,82.68
2022-12-03T20:45:11.363Z,77.90
2022-12-03T20:47:39.713Z,76.03
2022-12-03T20:50:08.195Z,73.68
2022-12-03T20:52:36.265Z,84.95
2022-12-03T20:55:04.505Z,79.15
2022-12-03T20:57:32.981Z,76.35
2022-12-03T21:00:04.091Z,83.63
2022-12-03T21:02:32.275Z,79.47
2022-12-03T21:05:00.146Z,75.72
2022-12-03T21:07:31.147Z,77.15
2022-12-03T21:09:59.179Z,73.45
2022-12-03T21:12:27.294Z,78.70
2022-12-03T21:14:54.529Z,81.32
2022-12-03T21:17:22.616Z,78.10
2022-12-03T21:19:53.109Z,91.95
2022-12-03T21:22:20.975Z,72.15
2022-12-03T21:24:48.364Z,71.57
2022-12-03T21:27:21.393Z,74.93
2022-12-03T21:29:49.288Z,76.72
2022-12-03T21:32:17.205Z,77.22
2022-12-03T21:34:44.279Z,77.88
2022-12-03T21:37:13.926Z,76.50
2022-12-03T21:39:44.196Z,66.57
2022-12-03T21:42:18.647Z,77.78
2022-12-03T21:45:04.824Z,77.07
2022-12-03T21:47:37.180Z,77.57
2022-12-03T21:50:08.573Z,80.72
2022-12-03T21:52:36.603Z,81.32
2022-12-03T21:55:04.143Z,84.40
2022-12-03T21:57:32.167Z,81.38
2022-12-03T22:00:00.253Z,85.55
2022-12-03T22:02:30.778Z,93.82
2022-12-03T22:04:59.342Z,85.45
2022-12-03T22:07:26.952Z,88.00
2022-12-03T22:09:54.239Z,78.93
2022-12-03T22:12:21.859Z,94.60
2022-12-03T22:14:48.852Z,102.38
2022-12-03T22:17:16.124Z,97.25
2022-12-03T22:19:43.108Z,96.68
2022-12-03T22:22:10.395Z,98.68
2022-12-03T22:24:38.703Z,103.70
2022-12-03T22:27:06.107Z,98.95
2022-12-03T22:29:35.608Z,100.70
2022-12-03T22:32:03.012Z,94.78
2022-12-03T22:34:30.037Z,100.72
2022-12-03T22:36:59.511Z,93.40
2022-12-03T22:39:26.480Z,89.72
2022-12-03T22:41:54.012Z,97.97
2022-12-03T22:44:20.999Z,85.05
2022-12-03T22:46:48.325Z,96.63
2022-12-03T22:49:17.801Z,85.22
2022-12-03T22:51:50.111Z,91.00
2022-12-03T22:54:23.560Z,81.45
2022-12-03T22:56:51.559Z,75.30
2022-12-03T22:59:18.675Z,82.18
2022-12-03T23:01:45.936Z,84.65
2022-12-03T23:04:13.095Z,88.18
2022-12-03T23:06:43.693Z,95.63
2022-12-03T23:09:10.911Z,89.25
2022-12-03T23:11:38.361Z,90.40
2022-12-03T23:14:05.496Z,89.82
2022-12-03T23:16:33.805Z,89.25
2022-12-03T23:19:02.537Z,92.05
2022-12-03T23:21:32.523Z,100.93
2022-12-03T23:24:00.732Z,95.13
2022-12-03T23:26:28.753Z,99.68
2022-12-03T23:28:56.510Z,92.25
2022-12-03T23:31:32.698Z,82.32
2022-12-03T23:36:29.975Z,87.20
2022-12-03T23:38:57.122Z,89.82
2022-12-03T23:41:24.879Z,90.63
2022-12-03T23:43:52.575Z,93.72
2022-12-03T23:46:25.638Z,94.13
2022-12-03T23:48:55.125Z,93.70
2022-12-03T23:51:24.477Z,101.63
2022-12-03T23:53:55.753Z,91.55
2022-12-03T23:56:29.427Z,101.60
2022-12-03T23:58:57.791Z,97.22
